sensor_id;sensor_type;location;lat;lon;timestamp;P1;durP1;ratioP1;P2;durP2;ratioP2
56381;SDS011;50261;51.150;4.470;2022-08-23T00:01:06;16.50;;;5.38;;
56381;SDS011;50261;51.150;4.470;2022-08-23T00:03:32;15.48;;;5.55;;
56381;SDS011;50261;51.150;4.470;2022-08-23T00:05:58;16.52;;;6.53;;
56381;SDS011;50261;51.150;4.470;2022-08-23T00:08:24;14.95;;;5.95;;
56381;SDS011;50261;51.150;4.470;2022-08-23T00:10:50;10.82;;;5.30;;
56381;SDS011;50261;51.150;4.470;2022-08-23T00:13:15;16.20;;;5.40;;
56381;SDS011;50261;51.150;4.470;2022-08-23T00:15:41;13.73;;;5.50;;
56381;SDS011;50261;51.150;4.470;2022-08-23T00:18:07;11.75;;;5.28;;
56381;SDS011;50261;51.150;4.470;2022-08-23T00:20:33;18.27;;;5.95;;
56381;SDS011;50261;51.150;4.470;2022-08-23T00:22:58;13.73;;;5.18;;
56381;SDS011;50261;51.150;4.470;2022-08-23T00:25:24;12.18;;;5.30;;
56381;SDS011;50261;51.150;4.470;2022-08-23T00:27:50;11.20;;;5.38;;
56381;SDS011;50261;51.150;4.470;2022-08-23T00:30:15;9.32;;;4.72;;
56381;SDS011;50261;51.150;4.470;2022-08-23T00:32:42;12.07;;;4.53;;
56381;SDS011;50261;51.150;4.470;2022-08-23T00:35:08;11.43;;;4.88;;
56381;SDS011;50261;51.150;4.470;2022-08-23T00:37:35;9.10;;;5.03;;
56381;SDS011;50261;51.150;4.470;2022-08-23T00:40:02;9.77;;;4.97;;
56381;SDS011;50261;51.150;4.470;2022-08-23T00:45:35;15.15;;;4.45;;
56381;SDS011;50261;51.150;4.470;2022-08-23T00:48:22;11.80;;;4.65;;
56381;SDS011;50261;51.150;4.470;2022-08-23T00:50:49;12.80;;;4.85;;
56381;SDS011;50261;51.150;4.470;2022-08-23T00:53:27;7.78;;;4.43;;
56381;SDS011;50261;51.150;4.470;2022-08-23T00:55:55;12.35;;;4.55;;
56381;SDS011;50261;51.150;4.470;2022-08-23T00:58:22;11.23;;;4.20;;
56381;SDS011;50261;51.150;4.470;2022-08-23T01:00:48;8.40;;;4.57;;
56381;SDS011;50261;51.150;4.470;2022-08-23T01:03:14;7.93;;;4.47;;
56381;SDS011;50261;51.150;4.470;2022-08-23T01:05:45;8.48;;;4.53;;
56381;SDS011;50261;51.150;4.470;2022-08-23T01:08:11;12.88;;;4.63;;
56381;SDS011;50261;51.150;4.470;2022-08-23T01:10:41;12.35;;;5.07;;
56381;SDS011;50261;51.150;4.470;2022-08-23T01:13:10;8.80;;;4.53;;
56381;SDS011;50261;51.150;4.470;2022-08-23T01:15:40;9.90;;;5.13;;
56381;SDS011;50261;51.150;4.470;2022-08-23T01:18:08;10.38;;;5.22;;
56381;SDS011;50261;51.150;4.470;2022-08-23T01:20:41;13.45;;;4.85;;
56381;SDS011;50261;51.150;4.470;2022-08-23T01:25:42;11.68;;;5.43;;
56381;SDS011;50261;51.150;4.470;2022-08-23T01:28:08;16.83;;;8.05;;
56381;SDS011;50261;51.150;4.470;2022-08-23T01:30:34;20.45;;;8.27;;
56381;SDS011;50261;51.150;4.470;2022-08-23T01:33:02;17.63;;;8.70;;
56381;SDS011;50261;51.150;4.470;2022-08-23T01:38:00;17.02;;;8.40;;
56381;SDS011;50261;51.150;4.470;2022-08-23T01:40:27;16.30;;;8.65;;
56381;SDS011;50261;51.150;4.470;2022-08-23T01:42:53;17.05;;;8.30;;
56381;SDS011;50261;51.150;4.470;2022-08-23T01:45:19;18.55;;;8.85;;
56381;SDS011;50261;51.150;4.470;2022-08-23T01:47:45;20.60;;;9.13;;
56381;SDS011;50261;51.150;4.470;2022-08-23T01:50:12;12.57;;;7.50;;
56381;SDS011;50261;51.150;4.470;2022-08-23T01:52:39;18.55;;;8.93;;
56381;SDS011;50261;51.150;4.470;2022-08-23T01:55:05;17.90;;;9.40;;
56381;SDS011;50261;51.150;4.470;2022-08-23T01:57:31;16.33;;;8.93;;
56381;SDS011;50261;51.150;4.470;2022-08-23T01:59:59;13.23;;;8.32;;
56381;SDS011;50261;51.150;4.470;2022-08-23T02:02:25;14.88;;;9.10;;
56381;SDS011;50261;51.150;4.470;2022-08-23T02:04:51;16.05;;;9.80;;
56381;SDS011;50261;51.150;4.470;2022-08-23T02:07:17;18.15;;;9.85;;
56381;SDS011;50261;51.150;4.470;2022-08-23T02:09:43;20.10;;;11.00;;
56381;SDS011;50261;51.150;4.470;2022-08-23T02:12:09;17.98;;;9.57;;
56381;SDS011;50261;51.150;4.470;2022-08-23T02:14:35;15.93;;;9.10;;
56381;SDS011;50261;51.150;4.470;2022-08-23T02:17:03;19.33;;;10.43;;
56381;SDS011;50261;51.150;4.470;2022-08-23T02:19:29;18.20;;;9.48;;
56381;SDS011;50261;51.150;4.470;2022-08-23T02:21:55;25.60;;;11.40;;
56381;SDS011;50261;51.150;4.470;2022-08-23T02:24:22;17.48;;;11.63;;
56381;SDS011;50261;51.150;4.470;2022-08-23T02:26:49;24.58;;;13.48;;
56381;SDS011;50261;51.150;4.470;2022-08-23T02:29:16;21.15;;;13.70;;
56381;SDS011;50261;51.150;4.470;2022-08-23T02:31:43;23.10;;;15.20;;
56381;SDS011;50261;51.150;4.470;2022-08-23T02:34:10;25.02;;;15.20;;
56381;SDS011;50261;51.150;4.470;2022-08-23T02:36:36;25.92;;;15.93;;
56381;SDS011;50261;51.150;4.470;2022-08-23T02:39:03;27.90;;;12.00;;
56381;SDS011;50261;51.150;4.470;2022-08-23T02:41:29;20.60;;;11.07;;
56381;SDS011;50261;51.150;4.470;2022-08-23T02:43:56;22.63;;;13.30;;
56381;SDS011;50261;51.150;4.470;2022-08-23T02:46:22;24.50;;;17.73;;
56381;SDS011;50261;51.150;4.470;2022-08-23T02:48:49;26.45;;;17.38;;
56381;SDS011;50261;51.150;4.470;2022-08-23T02:51:16;26.60;;;16.65;;
56381;SDS011;50261;51.150;4.470;2022-08-23T02:53:43;28.80;;;17.67;;
56381;SDS011;50261;51.150;4.470;2022-08-23T02:56:10;23.30;;;16.10;;
56381;SDS011;50261;51.150;4.470;2022-08-23T02:58:36;24.50;;;18.27;;
56381;SDS011;50261;51.150;4.470;2022-08-23T03:01:02;27.65;;;17.55;;
56381;SDS011;50261;51.150;4.470;2022-08-23T03:03:28;24.77;;;17.98;;
56381;SDS011;50261;51.150;4.470;2022-08-23T03:05:54;28.83;;;17.50;;
56381;SDS011;50261;51.150;4.470;2022-08-23T03:08:21;26.15;;;17.77;;
56381;SDS011;50261;51.150;4.470;2022-08-23T03:10:48;27.90;;;17.50;;
56381;SDS011;50261;51.150;4.470;2022-08-23T03:13:14;33.83;;;17.73;;
56381;SDS011;50261;51.150;4.470;2022-08-23T03:15:41;29.17;;;18.08;;
56381;SDS011;50261;51.150;4.470;2022-08-23T03:18:07;30.98;;;18.77;;
56381;SDS011;50261;51.150;4.470;2022-08-23T03:20:33;27.45;;;17.92;;
56381;SDS011;50261;51.150;4.470;2022-08-23T03:23:00;29.38;;;17.92;;
56381;SDS011;50261;51.150;4.470;2022-08-23T03:25:27;26.85;;;17.70;;
56381;SDS011;50261;51.150;4.470;2022-08-23T03:28:05;27.40;;;17.23;;
56381;SDS011;50261;51.150;4.470;2022-08-23T03:30:34;26.13;;;18.00;;
56381;SDS011;50261;51.150;4.470;2022-08-23T03:33:00;27.30;;;18.27;;
56381;SDS011;50261;51.150;4.470;2022-08-23T03:35:27;32.58;;;17.52;;
56381;SDS011;50261;51.150;4.470;2022-08-23T03:37:54;28.23;;;17.73;;
56381;SDS011;50261;51.150;4.470;2022-08-23T03:40:19;29.13;;;17.88;;
56381;SDS011;50261;51.150;4.470;2022-08-23T03:42:48;26.52;;;16.15;;
56381;SDS011;50261;51.150;4.470;2022-08-23T03:45:15;30.60;;;17.40;;
56381;SDS011;50261;51.150;4.470;2022-08-23T03:47:41;26.38;;;17.98;;
56381;SDS011;50261;51.150;4.470;2022-08-23T03:50:09;25.83;;;17.38;;
56381;SDS011;50261;51.150;4.470;2022-08-23T03:52:36;26.50;;;18.67;;
56381;SDS011;50261;51.150;4.470;2022-08-23T03:55:02;28.70;;;17.25;;
56381;SDS011;50261;51.150;4.470;2022-08-23T03:57:30;26.55;;;18.00;;
56381;SDS011;50261;51.150;4.470;2022-08-23T03:59:57;28.55;;;17.10;;
56381;SDS011;50261;51.150;4.470;2022-08-23T04:02:25;29.08;;;18.58;;
56381;SDS011;50261;51.150;4.470;2022-08-23T04:04:51;28.77;;;17.27;;
56381;SDS011;50261;51.150;4.470;2022-08-23T04:07:20;23.90;;;16.80;;
56381;SDS011;50261;51.150;4.470;2022-08-23T04:09:49;31.25;;;17.88;;
56381;SDS011;50261;51.150;4.470;2022-08-23T04:12:18;28.98;;;18.58;;
56381;SDS011;50261;51.150;4.470;2022-08-23T04:14:44;31.98;;;17.45;;
56381;SDS011;50261;51.150;4.470;2022-08-23T04:17:11;27.25;;;15.82;;
56381;SDS011;50261;51.150;4.470;2022-08-23T04:19:37;27.35;;;16.55;;
56381;SDS011;50261;51.150;4.470;2022-08-23T04:22:03;24.17;;;16.52;;
56381;SDS011;50261;51.150;4.470;2022-08-23T04:24:37;26.80;;;17.45;;
56381;SDS011;50261;51.150;4.470;2022-08-23T04:27:04;26.60;;;16.55;;
56381;SDS011;50261;51.150;4.470;2022-08-23T04:29:30;29.10;;;16.55;;
56381;SDS011;50261;51.150;4.470;2022-08-23T04:31:57;26.58;;;17.63;;
56381;SDS011;50261;51.150;4.470;2022-08-23T04:34:24;25.85;;;17.10;;
56381;SDS011;50261;51.150;4.470;2022-08-23T04:36:53;26.52;;;17.00;;
56381;SDS011;50261;51.150;4.470;2022-08-23T04:39:18;27.20;;;17.20;;
56381;SDS011;50261;51.150;4.470;2022-08-23T04:41:45;29.60;;;17.77;;
56381;SDS011;50261;51.150;4.470;2022-08-23T04:46:58;32.65;;;18.13;;
56381;SDS011;50261;51.150;4.470;2022-08-23T04:49:24;23.30;;;17.25;;
56381;SDS011;50261;51.150;4.470;2022-08-23T04:51:49;27.88;;;17.00;;
56381;SDS011;50261;51.150;4.470;2022-08-23T04:54:15;26.50;;;17.85;;
56381;SDS011;50261;51.150;4.470;2022-08-23T04:57:03;31.40;;;16.80;;
56381;SDS011;50261;51.150;4.470;2022-08-23T04:59:33;29.85;;;17.00;;
56381;SDS011;50261;51.150;4.470;2022-08-23T05:01:59;27.27;;;15.43;;
56381;SDS011;50261;51.150;4.470;2022-08-23T05:04:27;24.95;;;16.15;;
56381;SDS011;50261;51.150;4.470;2022-08-23T05:06:52;23.63;;;16.55;;
56381;SDS011;50261;51.150;4.470;2022-08-23T05:09:19;26.60;;;16.65;;
56381;SDS011;50261;51.150;4.470;2022-08-23T05:11:46;24.50;;;16.45;;
56381;SDS011;50261;51.150;4.470;2022-08-23T05:14:12;32.25;;;16.23;;
56381;SDS011;50261;51.150;4.470;2022-08-23T05:16:38;28.25;;;15.10;;
56381;SDS011;50261;51.150;4.470;2022-08-23T05:19:08;31.08;;;15.55;;
56381;SDS011;50261;51.150;4.470;2022-08-23T05:21:40;24.92;;;15.30;;
56381;SDS011;50261;51.150;4.470;2022-08-23T05:24:05;22.38;;;15.27;;
56381;SDS011;50261;51.150;4.470;2022-08-23T05:26:32;29.48;;;15.75;;
56381;SDS011;50261;51.150;4.470;2022-08-23T05:28:58;36.55;;;16.08;;
56381;SDS011;50261;51.150;4.470;2022-08-23T05:31:30;42.45;;;16.98;;
56381;SDS011;50261;51.150;4.470;2022-08-23T05:34:01;37.60;;;15.13;;
56381;SDS011;50261;51.150;4.470;2022-08-23T05:36:49;36.38;;;16.25;;
56381;SDS011;50261;51.150;4.470;2022-08-23T05:39:14;36.97;;;15.77;;
56381;SDS011;50261;51.150;4.470;2022-08-23T05:41:41;36.28;;;15.13;;
56381;SDS011;50261;51.150;4.470;2022-08-23T05:44:09;30.35;;;15.30;;
56381;SDS011;50261;51.150;4.470;2022-08-23T05:46:36;33.28;;;15.50;;
56381;SDS011;50261;51.150;4.470;2022-08-23T05:49:19;33.15;;;15.65;;
56381;SDS011;50261;51.150;4.470;2022-08-23T05:51:44;24.58;;;14.43;;
56381;SDS011;50261;51.150;4.470;2022-08-23T05:54:10;29.25;;;14.95;;
56381;SDS011;50261;51.150;4.470;2022-08-23T05:56:37;27.48;;;14.80;;
56381;SDS011;50261;51.150;4.470;2022-08-23T05:59:06;29.25;;;13.63;;
56381;SDS011;50261;51.150;4.470;2022-08-23T06:01:33;25.15;;;14.85;;
56381;SDS011;50261;51.150;4.470;2022-08-23T06:04:06;32.92;;;14.63;;
56381;SDS011;50261;51.150;4.470;2022-08-23T06:06:32;27.85;;;13.95;;
56381;SDS011;50261;51.150;4.470;2022-08-23T06:08:59;27.55;;;15.07;;
56381;SDS011;50261;51.150;4.470;2022-08-23T06:11:26;23.15;;;14.02;;
56381;SDS011;50261;51.150;4.470;2022-08-23T06:13:56;28.45;;;14.05;;
56381;SDS011;50261;51.150;4.470;2022-08-23T06:16:31;21.98;;;12.93;;
56381;SDS011;50261;51.150;4.470;2022-08-23T06:18:57;29.48;;;14.13;;
56381;SDS011;50261;51.150;4.470;2022-08-23T06:21:46;27.65;;;13.75;;
56381;SDS011;50261;51.150;4.470;2022-08-23T06:24:12;23.65;;;12.98;;
56381;SDS011;50261;51.150;4.470;2022-08-23T06:26:47;24.52;;;13.40;;
56381;SDS011;50261;51.150;4.470;2022-08-23T06:29:14;22.65;;;13.20;;
56381;SDS011;50261;51.150;4.470;2022-08-23T06:31:43;23.63;;;13.13;;
56381;SDS011;50261;51.150;4.470;2022-08-23T06:37:22;23.45;;;11.95;;
56381;SDS011;50261;51.150;4.470;2022-08-23T06:40:06;20.90;;;11.65;;
56381;SDS011;50261;51.150;4.470;2022-08-23T06:42:56;24.13;;;12.15;;
56381;SDS011;50261;51.150;4.470;2022-08-23T06:45:25;24.90;;;11.88;;
56381;SDS011;50261;51.150;4.470;2022-08-23T06:47:53;22.10;;;11.75;;
56381;SDS011;50261;51.150;4.470;2022-08-23T06:50:20;28.23;;;13.05;;
56381;SDS011;50261;51.150;4.470;2022-08-23T06:53:05;22.35;;;12.07;;
56381;SDS011;50261;51.150;4.470;2022-08-23T06:55:42;27.58;;;12.02;;
56381;SDS011;50261;51.150;4.470;2022-08-23T06:58:20;28.65;;;11.88;;
56381;SDS011;50261;51.150;4.470;2022-08-23T07:01:16;22.73;;;12.07;;
56381;SDS011;50261;51.150;4.470;2022-08-23T07:04:20;24.45;;;11.57;;
56381;SDS011;50261;51.150;4.470;2022-08-23T07:06:55;23.08;;;10.43;;
56381;SDS011;50261;51.150;4.470;2022-08-23T07:09:20;20.60;;;10.30;;
56381;SDS011;50261;51.150;4.470;2022-08-23T07:11:46;20.45;;;10.75;;
56381;SDS011;50261;51.150;4.470;2022-08-23T07:14:13;31.42;;;10.68;;
56381;SDS011;50261;51.150;4.470;2022-08-23T07:16:47;21.73;;;10.90;;
56381;SDS011;50261;51.150;4.470;2022-08-23T07:19:15;19.77;;;9.18;;
56381;SDS011;50261;51.150;4.470;2022-08-23T07:21:41;18.65;;;8.43;;
56381;SDS011;50261;51.150;4.470;2022-08-23T07:24:07;16.73;;;7.82;;
56381;SDS011;50261;51.150;4.470;2022-08-23T07:26:33;20.88;;;7.07;;
56381;SDS011;50261;51.150;4.470;2022-08-23T07:29:07;18.27;;;7.65;;
56381;SDS011;50261;51.150;4.470;2022-08-23T07:31:34;15.30;;;6.78;;
56381;SDS011;50261;51.150;4.470;2022-08-23T07:34:03;12.45;;;6.47;;
56381;SDS011;50261;51.150;4.470;2022-08-23T07:36:31;13.18;;;6.40;;
56381;SDS011;50261;51.150;4.470;2022-08-23T07:38:58;12.70;;;6.00;;
56381;SDS011;50261;51.150;4.470;2022-08-23T07:41:27;17.40;;;6.47;;
56381;SDS011;50261;51.150;4.470;2022-08-23T07:43:55;15.70;;;6.50;;
56381;SDS011;50261;51.150;4.470;2022-08-23T07:46:23;15.25;;;6.07;;
56381;SDS011;50261;51.150;4.470;2022-08-23T07:48:50;14.63;;;5.38;;
56381;SDS011;50261;51.150;4.470;2022-08-23T07:51:20;11.63;;;5.07;;
56381;SDS011;50261;51.150;4.470;2022-08-23T07:53:47;13.70;;;4.28;;
56381;SDS011;50261;51.150;4.470;2022-08-23T07:56:16;16.13;;;5.00;;
56381;SDS011;50261;51.150;4.470;2022-08-23T07:59:15;14.02;;;4.57;;
56381;SDS011;50261;51.150;4.470;2022-08-23T08:01:59;12.50;;;4.93;;
56381;SDS011;50261;51.150;4.470;2022-08-23T08:04:25;17.88;;;5.40;;
56381;SDS011;50261;51.150;4.470;2022-08-23T08:06:51;12.38;;;4.72;;
56381;SDS011;50261;51.150;4.470;2022-08-23T08:09:20;13.23;;;4.43;;
56381;SDS011;50261;51.150;4.470;2022-08-23T08:11:47;9.77;;;4.13;;
56381;SDS011;50261;51.150;4.470;2022-08-23T08:14:15;14.57;;;3.92;;
56381;SDS011;50261;51.150;4.470;2022-08-23T08:16:53;11.45;;;3.72;;
56381;SDS011;50261;51.150;4.470;2022-08-23T08:19:38;14.70;;;3.38;;
56381;SDS011;50261;51.150;4.470;2022-08-23T08:22:08;11.77;;;4.43;;
56381;SDS011;50261;51.150;4.470;2022-08-23T08:25:07;13.52;;;3.53;;
56381;SDS011;50261;51.150;4.470;2022-08-23T08:27:35;12.30;;;3.25;;
56381;SDS011;50261;51.150;4.470;2022-08-23T08:30:02;9.30;;;3.30;;
56381;SDS011;50261;51.150;4.470;2022-08-23T08:32:28;8.85;;;2.80;;
56381;SDS011;50261;51.150;4.470;2022-08-23T08:34:54;10.25;;;2.70;;
56381;SDS011;50261;51.150;4.470;2022-08-23T08:37:20;8.15;;;2.25;;
56381;SDS011;50261;51.150;4.470;2022-08-23T08:39:45;10.13;;;2.55;;
56381;SDS011;50261;51.150;4.470;2022-08-23T08:45:15;5.25;;;2.10;;
56381;SDS011;50261;51.150;4.470;2022-08-23T08:53:00;10.38;;;2.60;;
56381;SDS011;50261;51.150;4.470;2022-08-23T08:55:54;9.15;;;1.95;;
56381;SDS011;50261;51.150;4.470;2022-08-23T08:58:23;11.35;;;2.17;;
56381;SDS011;50261;51.150;4.470;2022-08-23T09:00:50;7.78;;;2.20;;
56381;SDS011;50261;51.150;4.470;2022-08-23T09:03:17;8.48;;;1.98;;
56381;SDS011;50261;51.150;4.470;2022-08-23T09:05:53;12.02;;;2.83;;
56381;SDS011;50261;51.150;4.470;2022-08-23T09:11:08;10.23;;;2.22;;
56381;SDS011;50261;51.150;4.470;2022-08-23T09:13:54;6.45;;;1.85;;
56381;SDS011;50261;51.150;4.470;2022-08-23T09:16:29;8.85;;;1.83;;
56381;SDS011;50261;51.150;4.470;2022-08-23T09:18:56;8.93;;;1.98;;
56381;SDS011;50261;51.150;4.470;2022-08-23T09:21:23;7.07;;;1.60;;
56381;SDS011;50261;51.150;4.470;2022-08-23T09:23:50;4.93;;;1.70;;
56381;SDS011;50261;51.150;4.470;2022-08-23T09:26:26;8.75;;;1.73;;
56381;SDS011;50261;51.150;4.470;2022-08-23T09:28:58;4.85;;;1.40;;
56381;SDS011;50261;51.150;4.470;2022-08-23T09:31:34;8.52;;;1.55;;
56381;SDS011;50261;51.150;4.470;2022-08-23T09:34:00;8.15;;;1.52;;
56381;SDS011;50261;51.150;4.470;2022-08-23T09:39:34;6.22;;;1.90;;
56381;SDS011;50261;51.150;4.470;2022-08-23T09:42:12;8.48;;;1.80;;
56381;SDS011;50261;51.150;4.470;2022-08-23T09:44:51;7.30;;;1.70;;
56381;SDS011;50261;51.150;4.470;2022-08-23T09:47:18;7.13;;;1.67;;
56381;SDS011;50261;51.150;4.470;2022-08-23T09:49:49;5.55;;;1.85;;
56381;SDS011;50261;51.150;4.470;2022-08-23T09:52:20;6.10;;;1.60;;
56381;SDS011;50261;51.150;4.470;2022-08-23T09:54:57;6.00;;;1.60;;
56381;SDS011;50261;51.150;4.470;2022-08-23T09:57:25;7.40;;;1.67;;
56381;SDS011;50261;51.150;4.470;2022-08-23T09:59:52;7.75;;;1.10;;
56381;SDS011;50261;51.150;4.470;2022-08-23T10:02:27;3.88;;;1.20;;
56381;SDS011;50261;51.150;4.470;2022-08-23T10:13:00;6.93;;;2.05;;
56381;SDS011;50261;51.150;4.470;2022-08-23T10:15:51;2.83;;;1.30;;
56381;SDS011;50261;51.150;4.470;2022-08-23T10:18:20;4.43;;;2.10;;
56381;SDS011;50261;51.150;4.470;2022-08-23T10:20:56;9.73;;;2.08;;
56381;SDS011;50261;51.150;4.470;2022-08-23T10:26:04;4.43;;;1.05;;
56381;SDS011;50261;51.150;4.470;2022-08-23T10:28:50;3.58;;;1.10;;
56381;SDS011;50261;51.150;4.470;2022-08-23T10:31:46;3.83;;;1.52;;
56381;SDS011;50261;51.150;4.470;2022-08-23T10:36:57;5.20;;;1.10;;
56381;SDS011;50261;51.150;4.470;2022-08-23T10:39:26;7.38;;;1.27;;
56381;SDS011;50261;51.150;4.470;2022-08-23T10:42:15;3.03;;;1.20;;
56381;SDS011;50261;51.150;4.470;2022-08-23T10:44:53;2.03;;;0.57;;
56381;SDS011;50261;51.150;4.470;2022-08-23T10:47:37;3.00;;;1.00;;
56381;SDS011;50261;51.150;4.470;2022-08-23T10:50:08;2.70;;;1.70;;
56381;SDS011;50261;51.150;4.470;2022-08-23T10:52:43;4.97;;;1.30;;
56381;SDS011;50261;51.150;4.470;2022-08-23T10:55:17;3.47;;;1.15;;
56381;SDS011;50261;51.150;4.470;2022-08-23T10:58:00;5.25;;;1.02;;
56381;SDS011;50261;51.150;4.470;2022-08-23T11:00:26;8.13;;;1.83;;
56381;SDS011;50261;51.150;4.470;2022-08-23T11:02:57;5.85;;;1.92;;
56381;SDS011;50261;51.150;4.470;2022-08-23T11:05:29;4.15;;;1.48;;
56381;SDS011;50261;51.150;4.470;2022-08-23T11:12:59;2.25;;;0.85;;
56381;SDS011;50261;51.150;4.470;2022-08-23T11:18:01;3.63;;;0.82;;
56381;SDS011;50261;51.150;4.470;2022-08-23T11:23:13;4.68;;;1.10;;
56381;SDS011;50261;51.150;4.470;2022-08-23T11:25:42;3.13;;;0.88;;
56381;SDS011;50261;51.150;4.470;2022-08-23T11:33:29;2.45;;;1.00;;
56381;SDS011;50261;51.150;4.470;2022-08-23T11:43:42;2.70;;;0.80;;
56381;SDS011;50261;51.150;4.470;2022-08-23T11:46:21;3.38;;;0.68;;
56381;SDS011;50261;51.150;4.470;2022-08-23T11:53:57;11.25;;;1.02;;
56381;SDS011;50261;51.150;4.470;2022-08-23T11:56:39;2.13;;;0.50;;
56381;SDS011;50261;51.150;4.470;2022-08-23T12:01:54;5.53;;;1.15;;
56381;SDS011;50261;51.150;4.470;2022-08-23T12:04:36;5.45;;;1.02;;
56381;SDS011;50261;51.150;4.470;2022-08-23T12:07:03;8.50;;;1.13;;
56381;SDS011;50261;51.150;4.470;2022-08-23T12:12:10;1.52;;;0.80;;
56381;SDS011;50261;51.150;4.470;2022-08-23T12:19:38;2.30;;;0.77;;
56381;SDS011;50261;51.150;4.470;2022-08-23T12:22:12;5.57;;;1.10;;
56381;SDS011;50261;51.150;4.470;2022-08-23T12:24:43;2.83;;;0.85;;
56381;SDS011;50261;51.150;4.470;2022-08-23T12:27:11;2.97;;;0.60;;
56381;SDS011;50261;51.150;4.470;2022-08-23T12:35:09;2.60;;;0.88;;
56381;SDS011;50261;51.150;4.470;2022-08-23T12:37:55;3.25;;;0.57;;
56381;SDS011;50261;51.150;4.470;2022-08-23T12:43:01;5.28;;;1.00;;
56381;SDS011;50261;51.150;4.470;2022-08-23T12:45:34;6.15;;;1.08;;
56381;SDS011;50261;51.150;4.470;2022-08-23T12:48:00;3.77;;;0.80;;
56381;SDS011;50261;51.150;4.470;2022-08-23T12:50:29;3.40;;;0.80;;
56381;SDS011;50261;51.150;4.470;2022-08-23T12:53:08;3.42;;;0.85;;
56381;SDS011;50261;51.150;4.470;2022-08-23T12:55:42;3.30;;;1.00;;
56381;SDS011;50261;51.150;4.470;2022-08-23T12:58:08;12.95;;;2.08;;
56381;SDS011;50261;51.150;4.470;2022-08-23T13:00:42;6.90;;;0.90;;
56381;SDS011;50261;51.150;4.470;2022-08-23T13:03:16;2.30;;;0.55;;
56381;SDS011;50261;51.150;4.470;2022-08-23T13:05:44;4.97;;;0.77;;
56381;SDS011;50261;51.150;4.470;2022-08-23T13:08:15;3.10;;;0.90;;
56381;SDS011;50261;51.150;4.470;2022-08-23T13:10:43;6.93;;;1.00;;
56381;SDS011;50261;51.150;4.470;2022-08-23T13:13:09;3.00;;;0.90;;
56381;SDS011;50261;51.150;4.470;2022-08-23T13:15:43;1.80;;;0.82;;
56381;SDS011;50261;51.150;4.470;2022-08-23T13:18:09;3.30;;;1.00;;
56381;SDS011;50261;51.150;4.470;2022-08-23T13:20:34;2.20;;;1.10;;
56381;SDS011;50261;51.150;4.470;2022-08-23T13:23:04;3.10;;;0.70;;
56381;SDS011;50261;51.150;4.470;2022-08-23T13:25:32;2.25;;;1.00;;
56381;SDS011;50261;51.150;4.470;2022-08-23T13:28:03;2.03;;;0.93;;
56381;SDS011;50261;51.150;4.470;2022-08-23T13:30:36;4.85;;;0.82;;
56381;SDS011;50261;51.150;4.470;2022-08-23T13:35:34;1.33;;;0.85;;
56381;SDS011;50261;51.150;4.470;2022-08-23T13:40:39;2.72;;;0.65;;
56381;SDS011;50261;51.150;4.470;2022-08-23T13:43:06;1.90;;;0.80;;
56381;SDS011;50261;51.150;4.470;2022-08-23T13:45:33;4.43;;;0.90;;
56381;SDS011;50261;51.150;4.470;2022-08-23T13:50:32;10.73;;;1.60;;
56381;SDS011;50261;51.150;4.470;2022-08-23T13:52:58;2.15;;;0.43;;
56381;SDS011;50261;51.150;4.470;2022-08-23T13:55:24;1.75;;;0.50;;
56381;SDS011;50261;51.150;4.470;2022-08-23T13:57:50;4.10;;;1.33;;
56381;SDS011;50261;51.150;4.470;2022-08-23T14:00:16;1.70;;;0.70;;
56381;SDS011;50261;51.150;4.470;2022-08-23T14:02:42;3.42;;;0.60;;
56381;SDS011;50261;51.150;4.470;2022-08-23T14:05:13;1.75;;;1.00;;
56381;SDS011;50261;51.150;4.470;2022-08-23T14:07:38;5.15;;;0.77;;
56381;SDS011;50261;51.150;4.470;2022-08-23T14:10:05;1.00;;;0.63;;
56381;SDS011;50261;51.150;4.470;2022-08-23T14:12:31;0.80;;;0.60;;
56381;SDS011;50261;51.150;4.470;2022-08-23T14:14:57;1.45;;;0.60;;
56381;SDS011;50261;51.150;4.470;2022-08-23T14:17:23;3.28;;;0.70;;
56381;SDS011;50261;51.150;4.470;2022-08-23T14:19:49;1.63;;;0.70;;
56381;SDS011;50261;51.150;4.470;2022-08-23T14:22:15;2.22;;;0.70;;
56381;SDS011;50261;51.150;4.470;2022-08-23T14:24:42;1.45;;;0.80;;
56381;SDS011;50261;51.150;4.470;2022-08-23T14:27:08;3.72;;;0.77;;
56381;SDS011;50261;51.150;4.470;2022-08-23T14:29:33;4.72;;;1.20;;
56381;SDS011;50261;51.150;4.470;2022-08-23T14:31:59;0.70;;;0.65;;
56381;SDS011;50261;51.150;4.470;2022-08-23T14:34:25;1.90;;;0.60;;
56381;SDS011;50261;51.150;4.470;2022-08-23T14:36:50;1.48;;;0.73;;
56381;SDS011;50261;51.150;4.470;2022-08-23T14:39:18;1.95;;;0.80;;
56381;SDS011;50261;51.150;4.470;2022-08-23T14:41:44;1.70;;;0.70;;
56381;SDS011;50261;51.150;4.470;2022-08-23T14:44:09;1.40;;;0.90;;
56381;SDS011;50261;51.150;4.470;2022-08-23T14:46:38;2.42;;;0.80;;
56381;SDS011;50261;51.150;4.470;2022-08-23T14:49:03;0.88;;;0.47;;
56381;SDS011;50261;51.150;4.470;2022-08-23T14:51:32;0.82;;;0.60;;
56381;SDS011;50261;51.150;4.470;2022-08-23T14:53:59;3.05;;;1.00;;
56381;SDS011;50261;51.150;4.470;2022-08-23T14:56:25;2.05;;;0.80;;
56381;SDS011;50261;51.150;4.470;2022-08-23T14:58:51;2.33;;;0.80;;
56381;SDS011;50261;51.150;4.470;2022-08-23T15:01:17;0.95;;;0.60;;
56381;SDS011;50261;51.150;4.470;2022-08-23T15:03:43;4.20;;;1.00;;
56381;SDS011;50261;51.150;4.470;2022-08-23T15:06:09;1.95;;;0.90;;
56381;SDS011;50261;51.150;4.470;2022-08-23T15:08:35;1.35;;;0.80;;
56381;SDS011;50261;51.150;4.470;2022-08-23T15:11:00;2.35;;;0.88;;
56381;SDS011;50261;51.150;4.470;2022-08-23T15:13:26;2.22;;;1.00;;
56381;SDS011;50261;51.150;4.470;2022-08-23T15:15:51;1.85;;;0.65;;
56381;SDS011;50261;51.150;4.470;2022-08-23T15:18:17;1.10;;;0.88;;
56381;SDS011;50261;51.150;4.470;2022-08-23T15:20:43;2.50;;;0.73;;
56381;SDS011;50261;51.150;4.470;2022-08-23T15:23:09;3.13;;;1.10;;
56381;SDS011;50261;51.150;4.470;2022-08-23T15:25:36;2.22;;;1.00;;
56381;SDS011;50261;51.150;4.470;2022-08-23T15:28:03;3.92;;;0.98;;
56381;SDS011;50261;51.150;4.470;2022-08-23T15:30:28;3.40;;;1.00;;
56381;SDS011;50261;51.150;4.470;2022-08-23T15:32:54;9.77;;;1.08;;
56381;SDS011;50261;51.150;4.470;2022-08-23T15:35:20;4.30;;;1.10;;
56381;SDS011;50261;51.150;4.470;2022-08-23T15:37:45;3.28;;;0.90;;
56381;SDS011;50261;51.150;4.470;2022-08-23T15:40:11;2.55;;;0.80;;
56381;SDS011;50261;51.150;4.470;2022-08-23T15:42:36;1.02;;;0.70;;
56381;SDS011;50261;51.150;4.470;2022-08-23T15:45:02;1.30;;;0.60;;
56381;SDS011;50261;51.150;4.470;2022-08-23T15:47:30;1.92;;;0.80;;
56381;SDS011;50261;51.150;4.470;2022-08-23T15:49:57;3.08;;;0.73;;
56381;SDS011;50261;51.150;4.470;2022-08-23T15:52:22;0.85;;;0.75;;
56381;SDS011;50261;51.150;4.470;2022-08-23T15:54:48;3.58;;;0.90;;
56381;SDS011;50261;51.150;4.470;2022-08-23T15:57:14;1.23;;;0.60;;
56381;SDS011;50261;51.150;4.470;2022-08-23T15:59:40;1.58;;;0.80;;
56381;SDS011;50261;51.150;4.470;2022-08-23T16:02:06;4.38;;;0.75;;
56381;SDS011;50261;51.150;4.470;2022-08-23T16:04:31;3.20;;;0.80;;
56381;SDS011;50261;51.150;4.470;2022-08-23T16:06:57;3.90;;;0.82;;
56381;SDS011;50261;51.150;4.470;2022-08-23T16:09:23;2.25;;;1.10;;
56381;SDS011;50261;51.150;4.470;2022-08-23T16:11:49;2.40;;;1.10;;
56381;SDS011;50261;51.150;4.470;2022-08-23T16:14:15;1.02;;;0.93;;
56381;SDS011;50261;51.150;4.470;2022-08-23T16:16:40;2.63;;;0.90;;
56381;SDS011;50261;51.150;4.470;2022-08-23T16:19:07;3.22;;;1.10;;
56381;SDS011;50261;51.150;4.470;2022-08-23T16:21:32;1.55;;;0.90;;
56381;SDS011;50261;51.150;4.470;2022-08-23T16:23:58;3.55;;;1.13;;